Terminal Aerodrome Forecast
Issued by NWS Jacksonville, FL

Home | Current Version | Previous Version | Text Only | Print | Product List | Glossary On
Versions: 1 2 3 4 5 6 7 8 9 10 11 12 13 14 15 16 17 18 19 20 21 22 23 24 25 26 27 28 29 30 31 32 33 34 35
000
FTUS42 KJAX 301300 AAA
TAFGNV
TAF AMD
KGNV 301306Z 3013/0112 36005KT 4SM -SHRA BR OVC005
     FM301600 36006KT P6SM VCSH OVC007
     FM301900 01006KT P6SM VCSH OVC012
     FM302100 02007KT P6SM SCT012 OVC025
     FM302300 04008KT P6SM SCT025 BKN040
     FM010900 VRB02KT 5SM BR SCT003 SCT250=

USA.gov is the U.S. government's official web portal to all federal, state and local government web resources and services.